Terminal Aerodrome Forecast
Issued by NWS

Home | Current Version | Previous Version | Text Only | Print | Product List | Glossary On
Versions: 1 2 3 4 5 6 7 8 9 10 11 12 13 14 15 16 17 18 19 20 21 22 23 24 25 26 27 28 29 30 31 32 33 34 35
000
FTUS45 KLKN 052320
TAFEKO
TAF
KEKO 052320Z 0600/0624 25010G22KT P6SM VCSH SCT060 BKN090
     FM060500 VRB06KT P6SM FEW090
     FM061100 VRB04KT P6SM SKC
     FM062000 26010G18KT P6SM FEW100 SCT250=

USA.gov is the U.S. government's official web portal to all federal, state and local government web resources and services.